Skip Navigation Links Skip Navigation Links

Current Weather

Montgomery Rgnl (Dannelly Field), Montgomery, Ala.

For information only: do not use for flight planning or navigation.
Latest weather
Observation time Thursday, January 27, 2022 10:53 PM CST
Local time Thursday, January 27, 2022 11:29 PM CST
Flight conditions Visual Meteorological Conditions
Winds
Wind direction East-Northeast (70°)
Wind speed 3 mph
Visibility 10 mi.
Sky condition
Ceiling unlimited
Sky clear
Temperature 42°F
Dewpoint 31°F
Altimeter 30.19 in.Hg
Derived measurements
Relative humidity 64%
Wind chill 40°F
Density altitude -1132 ft.
Sea-level pressure 30.19 in.Hg
Remarks
Fully automated report.
Automated weather observing station with precipitation discriminator.
METAR KMGM 280453Z AUTO 07003KT 10SM CLR 06/M01 A3019 RMK AO2 SLP223 T00561006

Settings

Location code

InnerDrive.Weather 4.0.6770.0 Release CLR 4.0.30319.42000
Copyright ©2018 Inner Drive Technology. All rights reserved. Portions Copyright ©1986-2018 David Braverman.

Find weather

Site navigation


Skip Navigation Links

Place info

Page info

PayPal - The safer, easier way to pay online!

Return home.

Copyright ©2022 Inner Drive Technology. Purveyors of fine, hand-crafted computer software. Page printed 2022-01-28T05:29:58 UTC.